sensor_id;sensor_type;location;lat;lon;timestamp;P1;durP1;ratioP1;P2;durP2;ratioP2
40286;SDS011;25998;46.604;13.610;2023-06-26T00:01:17;10.38;;;9.38;;
40286;SDS011;25998;46.604;13.610;2023-06-26T00:04:31;10.02;;;9.13;;
40286;SDS011;25998;46.604;13.610;2023-06-26T00:07:42;10.00;;;8.85;;
40286;SDS011;25998;46.604;13.610;2023-06-26T00:10:53;10.32;;;9.32;;
40286;SDS011;25998;46.604;13.610;2023-06-26T00:14:04;10.25;;;9.20;;
40286;SDS011;25998;46.604;13.610;2023-06-26T00:17:16;9.85;;;8.85;;
40286;SDS011;25998;46.604;13.610;2023-06-26T00:20:27;9.77;;;8.73;;
40286;SDS011;25998;46.604;13.610;2023-06-26T00:23:38;9.95;;;8.93;;
40286;SDS011;25998;46.604;13.610;2023-06-26T00:26:48;10.85;;;9.65;;
40286;SDS011;25998;46.604;13.610;2023-06-26T00:29:59;12.68;;;9.48;;
40286;SDS011;25998;46.604;13.610;2023-06-26T00:33:10;10.30;;;8.98;;
40286;SDS011;25998;46.604;13.610;2023-06-26T00:36:21;10.55;;;8.95;;
40286;SDS011;25998;46.604;13.610;2023-06-26T00:39:36;10.48;;;9.48;;
40286;SDS011;25998;46.604;13.610;2023-06-26T00:42:47;10.60;;;9.50;;
40286;SDS011;25998;46.604;13.610;2023-06-26T00:45:57;11.60;;;10.40;;
40286;SDS011;25998;46.604;13.610;2023-06-26T00:49:09;10.85;;;9.77;;
40286;SDS011;25998;46.604;13.610;2023-06-26T00:52:20;10.52;;;9.43;;
40286;SDS011;25998;46.604;13.610;2023-06-26T00:55:31;10.25;;;9.27;;
40286;SDS011;25998;46.604;13.610;2023-06-26T00:58:42;11.25;;;10.15;;
40286;SDS011;25998;46.604;13.610;2023-06-26T01:01:53;9.63;;;8.73;;
40286;SDS011;25998;46.604;13.610;2023-06-26T01:05:04;10.20;;;9.20;;
40286;SDS011;25998;46.604;13.610;2023-06-26T01:08:16;10.50;;;9.50;;
40286;SDS011;25998;46.604;13.610;2023-06-26T01:11:29;10.48;;;9.48;;
40286;SDS011;25998;46.604;13.610;2023-06-26T01:14:39;10.68;;;9.35;;
40286;SDS011;25998;46.604;13.610;2023-06-26T01:17:51;11.07;;;9.95;;
40286;SDS011;25998;46.604;13.610;2023-06-26T01:21:02;11.05;;;9.95;;
40286;SDS011;25998;46.604;13.610;2023-06-26T01:24:18;11.05;;;9.80;;
40286;SDS011;25998;46.604;13.610;2023-06-26T01:27:37;12.07;;;10.02;;
40286;SDS011;25998;46.604;13.610;2023-06-26T01:30:49;12.00;;;10.80;;
40286;SDS011;25998;46.604;13.610;2023-06-26T01:34:02;10.75;;;9.65;;
40286;SDS011;25998;46.604;13.610;2023-06-26T01:37:13;10.82;;;9.35;;
40286;SDS011;25998;46.604;13.610;2023-06-26T01:40:24;10.15;;;9.15;;
40286;SDS011;25998;46.604;13.610;2023-06-26T01:43:45;10.75;;;9.70;;
40286;SDS011;25998;46.604;13.610;2023-06-26T01:47:14;10.50;;;9.45;;
40286;SDS011;25998;46.604;13.610;2023-06-26T01:50:30;11.52;;;10.40;;
40286;SDS011;25998;46.604;13.610;2023-06-26T01:53:45;11.02;;;9.93;;
40286;SDS011;25998;46.604;13.610;2023-06-26T01:57:01;10.88;;;9.88;;
40286;SDS011;25998;46.604;13.610;2023-06-26T02:00:13;11.18;;;10.07;;
40286;SDS011;25998;46.604;13.610;2023-06-26T02:03:28;11.50;;;10.38;;
40286;SDS011;25998;46.604;13.610;2023-06-26T02:06:40;11.93;;;9.90;;
40286;SDS011;25998;46.604;13.610;2023-06-26T02:09:51;10.70;;;9.60;;
40286;SDS011;25998;46.604;13.610;2023-06-26T02:13:02;10.55;;;9.55;;
40286;SDS011;25998;46.604;13.610;2023-06-26T02:16:12;11.07;;;9.98;;
40286;SDS011;25998;46.604;13.610;2023-06-26T02:19:23;10.65;;;9.52;;
40286;SDS011;25998;46.604;13.610;2023-06-26T02:22:35;10.88;;;9.77;;
40286;SDS011;25998;46.604;13.610;2023-06-26T02:25:46;10.80;;;9.52;;
40286;SDS011;25998;46.604;13.610;2023-06-26T02:28:57;11.35;;;10.25;;
40286;SDS011;25998;46.604;13.610;2023-06-26T02:32:08;11.98;;;10.18;;
40286;SDS011;25998;46.604;13.610;2023-06-26T02:35:19;11.45;;;10.25;;
40286;SDS011;25998;46.604;13.610;2023-06-26T02:38:30;11.20;;;9.80;;
40286;SDS011;25998;46.604;13.610;2023-06-26T02:41:41;13.18;;;10.55;;
40286;SDS011;25998;46.604;13.610;2023-06-26T02:44:51;12.07;;;10.80;;
40286;SDS011;25998;46.604;13.610;2023-06-26T02:48:02;11.35;;;10.30;;
40286;SDS011;25998;46.604;13.610;2023-06-26T02:51:13;12.05;;;10.85;;
40286;SDS011;25998;46.604;13.610;2023-06-26T02:54:24;12.30;;;10.35;;
40286;SDS011;25998;46.604;13.610;2023-06-26T02:57:35;12.60;;;10.48;;
40286;SDS011;25998;46.604;13.610;2023-06-26T03:00:46;11.90;;;10.60;;
40286;SDS011;25998;46.604;13.610;2023-06-26T03:03:57;11.07;;;9.98;;
40286;SDS011;25998;46.604;13.610;2023-06-26T03:07:10;13.73;;;11.30;;
40286;SDS011;25998;46.604;13.610;2023-06-26T03:10:21;11.93;;;10.73;;
40286;SDS011;25998;46.604;13.610;2023-06-26T03:13:32;11.43;;;10.23;;
40286;SDS011;25998;46.604;13.610;2023-06-26T03:16:46;10.82;;;9.73;;
40286;SDS011;25998;46.604;13.610;2023-06-26T03:19:57;12.30;;;10.63;;
40286;SDS011;25998;46.604;13.610;2023-06-26T03:23:08;11.85;;;10.65;;
40286;SDS011;25998;46.604;13.610;2023-06-26T03:26:19;11.57;;;10.48;;
40286;SDS011;25998;46.604;13.610;2023-06-26T03:29:30;11.95;;;10.73;;
40286;SDS011;25998;46.604;13.610;2023-06-26T03:32:41;11.80;;;10.65;;
40286;SDS011;25998;46.604;13.610;2023-06-26T03:35:52;15.77;;;11.18;;
40286;SDS011;25998;46.604;13.610;2023-06-26T03:39:03;12.45;;;10.45;;
40286;SDS011;25998;46.604;13.610;2023-06-26T03:42:14;11.38;;;10.18;;
40286;SDS011;25998;46.604;13.610;2023-06-26T03:45:25;11.98;;;10.77;;
40286;SDS011;25998;46.604;13.610;2023-06-26T03:48:36;11.75;;;10.52;;
40286;SDS011;25998;46.604;13.610;2023-06-26T03:51:48;11.50;;;10.30;;
40286;SDS011;25998;46.604;13.610;2023-06-26T03:54:59;11.60;;;10.40;;
40286;SDS011;25998;46.604;13.610;2023-06-26T03:58:10;18.27;;;12.07;;
40286;SDS011;25998;46.604;13.610;2023-06-26T04:01:21;14.15;;;11.40;;
40286;SDS011;25998;46.604;13.610;2023-06-26T04:04:32;14.10;;;11.57;;
40286;SDS011;25998;46.604;13.610;2023-06-26T04:07:43;11.55;;;10.35;;
40286;SDS011;25998;46.604;13.610;2023-06-26T04:10:53;12.57;;;10.63;;
40286;SDS011;25998;46.604;13.610;2023-06-26T04:14:07;17.88;;;12.02;;
40286;SDS011;25998;46.604;13.610;2023-06-26T04:17:18;15.60;;;11.38;;
40286;SDS011;25998;46.604;13.610;2023-06-26T04:20:30;14.55;;;11.43;;
40286;SDS011;25998;46.604;13.610;2023-06-26T04:23:41;11.98;;;10.52;;
40286;SDS011;25998;46.604;13.610;2023-06-26T04:26:52;13.70;;;12.05;;
40286;SDS011;25998;46.604;13.610;2023-06-26T04:30:02;18.50;;;12.10;;
40286;SDS011;25998;46.604;13.610;2023-06-26T04:33:14;27.13;;;12.88;;
40286;SDS011;25998;46.604;13.610;2023-06-26T04:36:25;19.08;;;11.75;;
40286;SDS011;25998;46.604;13.610;2023-06-26T04:39:39;15.98;;;11.95;;
40286;SDS011;25998;46.604;13.610;2023-06-26T04:42:50;16.95;;;12.07;;
40286;SDS011;25998;46.604;13.610;2023-06-26T04:46:04;19.98;;;12.32;;
40286;SDS011;25998;46.604;13.610;2023-06-26T04:49:15;18.70;;;12.40;;
40286;SDS011;25998;46.604;13.610;2023-06-26T04:52:27;16.50;;;12.15;;
40286;SDS011;25998;46.604;13.610;2023-06-26T04:55:38;14.98;;;12.38;;
40286;SDS011;25998;46.604;13.610;2023-06-26T04:58:49;19.50;;;12.50;;
40286;SDS011;25998;46.604;13.610;2023-06-26T05:02:00;29.52;;;13.23;;
40286;SDS011;25998;46.604;13.610;2023-06-26T05:05:11;21.38;;;11.70;;
40286;SDS011;25998;46.604;13.610;2023-06-26T05:08:22;21.13;;;13.88;;
40286;SDS011;25998;46.604;13.610;2023-06-26T05:11:36;13.43;;;11.18;;
40286;SDS011;25998;46.604;13.610;2023-06-26T05:14:47;17.45;;;12.15;;
40286;SDS011;25998;46.604;13.610;2023-06-26T05:17:58;25.80;;;13.20;;
40286;SDS011;25998;46.604;13.610;2023-06-26T05:21:09;15.70;;;12.05;;
40286;SDS011;25998;46.604;13.610;2023-06-26T05:24:20;25.25;;;13.10;;
40286;SDS011;25998;46.604;13.610;2023-06-26T05:27:32;19.23;;;13.15;;
40286;SDS011;25998;46.604;13.610;2023-06-26T05:30:43;17.65;;;12.35;;
40286;SDS011;25998;46.604;13.610;2023-06-26T05:33:54;18.92;;;13.13;;
40286;SDS011;25998;46.604;13.610;2023-06-26T05:37:08;20.17;;;12.20;;
40286;SDS011;25998;46.604;13.610;2023-06-26T05:40:19;14.52;;;12.00;;
40286;SDS011;25998;46.604;13.610;2023-06-26T05:43:30;25.27;;;14.93;;
40286;SDS011;25998;46.604;13.610;2023-06-26T05:46:41;13.93;;;10.73;;
40286;SDS011;25998;46.604;13.610;2023-06-26T05:49:52;12.18;;;10.93;;
40286;SDS011;25998;46.604;13.610;2023-06-26T05:53:03;13.85;;;11.05;;
40286;SDS011;25998;46.604;13.610;2023-06-26T05:56:15;12.75;;;11.43;;
40286;SDS011;25998;46.604;13.610;2023-06-26T05:59:28;14.55;;;10.50;;
40286;SDS011;25998;46.604;13.610;2023-06-26T06:02:45;11.98;;;10.75;;
40286;SDS011;25998;46.604;13.610;2023-06-26T06:05:56;10.85;;;9.85;;
40286;SDS011;25998;46.604;13.610;2023-06-26T06:09:07;11.52;;;10.38;;
40286;SDS011;25998;46.604;13.610;2023-06-26T06:12:18;13.02;;;9.50;;
40286;SDS011;25998;46.604;13.610;2023-06-26T06:15:28;12.10;;;10.45;;
40286;SDS011;25998;46.604;13.610;2023-06-26T06:18:39;13.05;;;10.45;;
40286;SDS011;25998;46.604;13.610;2023-06-26T06:21:50;10.63;;;9.63;;
40286;SDS011;25998;46.604;13.610;2023-06-26T06:25:01;13.95;;;10.77;;
40286;SDS011;25998;46.604;13.610;2023-06-26T06:28:12;16.13;;;10.77;;
40286;SDS011;25998;46.604;13.610;2023-06-26T06:31:26;13.02;;;11.82;;
40286;SDS011;25998;46.604;13.610;2023-06-26T06:34:40;12.30;;;11.10;;
40286;SDS011;25998;46.604;13.610;2023-06-26T06:37:50;12.60;;;11.40;;
40286;SDS011;25998;46.604;13.610;2023-06-26T06:41:01;14.68;;;11.60;;
40286;SDS011;25998;46.604;13.610;2023-06-26T06:44:12;11.63;;;10.43;;
40286;SDS011;25998;46.604;13.610;2023-06-26T06:47:23;12.57;;;10.25;;
40286;SDS011;25998;46.604;13.610;2023-06-26T06:50:34;11.63;;;10.43;;
40286;SDS011;25998;46.604;13.610;2023-06-26T06:53:45;12.13;;;10.40;;
40286;SDS011;25998;46.604;13.610;2023-06-26T06:56:56;12.20;;;10.98;;
40286;SDS011;25998;46.604;13.610;2023-06-26T07:00:07;11.90;;;10.68;;
40286;SDS011;25998;46.604;13.610;2023-06-26T07:03:20;13.40;;;11.43;;
40286;SDS011;25998;46.604;13.610;2023-06-26T07:06:31;12.02;;;10.85;;
40286;SDS011;25998;46.604;13.610;2023-06-26T07:09:42;12.90;;;11.60;;
40286;SDS011;25998;46.604;13.610;2023-06-26T07:12:53;11.93;;;10.82;;
40286;SDS011;25998;46.604;13.610;2023-06-26T07:16:06;11.80;;;10.63;;
40286;SDS011;25998;46.604;13.610;2023-06-26T07:19:17;11.70;;;10.50;;
40286;SDS011;25998;46.604;13.610;2023-06-26T07:22:28;11.38;;;10.27;;
40286;SDS011;25998;46.604;13.610;2023-06-26T07:25:39;11.82;;;10.27;;
40286;SDS011;25998;46.604;13.610;2023-06-26T07:28:50;11.35;;;10.35;;
40286;SDS011;25998;46.604;13.610;2023-06-26T07:32:00;12.35;;;11.02;;
40286;SDS011;25998;46.604;13.610;2023-06-26T07:35:11;13.23;;;11.02;;
40286;SDS011;25998;46.604;13.610;2023-06-26T07:38:22;11.65;;;9.95;;
40286;SDS011;25998;46.604;13.610;2023-06-26T07:41:33;12.88;;;10.88;;
40286;SDS011;25998;46.604;13.610;2023-06-26T07:44:44;11.02;;;10.00;;
40286;SDS011;25998;46.604;13.610;2023-06-26T07:47:55;11.82;;;10.55;;
40286;SDS011;25998;46.604;13.610;2023-06-26T07:51:06;11.57;;;10.40;;
40286;SDS011;25998;46.604;13.610;2023-06-26T07:54:17;13.07;;;9.90;;
40286;SDS011;25998;46.604;13.610;2023-06-26T07:57:27;11.35;;;10.25;;
40286;SDS011;25998;46.604;13.610;2023-06-26T08:00:39;11.23;;;10.13;;
40286;SDS011;25998;46.604;13.610;2023-06-26T08:03:50;11.15;;;10.10;;
40286;SDS011;25998;46.604;13.610;2023-06-26T08:07:01;11.20;;;10.05;;
40286;SDS011;25998;46.604;13.610;2023-06-26T08:10:13;11.30;;;10.30;;
40286;SDS011;25998;46.604;13.610;2023-06-26T08:13:24;10.93;;;9.82;;
40286;SDS011;25998;46.604;13.610;2023-06-26T08:16:35;10.75;;;9.75;;
40286;SDS011;25998;46.604;13.610;2023-06-26T08:19:46;11.50;;;10.50;;
40286;SDS011;25998;46.604;13.610;2023-06-26T08:22:57;12.05;;;10.95;;
40286;SDS011;25998;46.604;13.610;2023-06-26T08:26:08;11.23;;;9.95;;
40286;SDS011;25998;46.604;13.610;2023-06-26T08:29:19;11.68;;;10.57;;
40286;SDS011;25998;46.604;13.610;2023-06-26T08:32:29;11.48;;;10.48;;
40286;SDS011;25998;46.604;13.610;2023-06-26T08:35:40;10.85;;;9.80;;
40286;SDS011;25998;46.604;13.610;2023-06-26T08:42:15;11.57;;;10.38;;
40286;SDS011;25998;46.604;13.610;2023-06-26T08:45:26;10.77;;;9.70;;
40286;SDS011;25998;46.604;13.610;2023-06-26T08:48:38;12.13;;;11.02;;
40286;SDS011;25998;46.604;13.610;2023-06-26T08:51:57;14.27;;;10.57;;
40286;SDS011;25998;46.604;13.610;2023-06-26T08:55:13;11.77;;;10.68;;
40286;SDS011;25998;46.604;13.610;2023-06-26T08:58:26;12.00;;;10.80;;
40286;SDS011;25998;46.604;13.610;2023-06-26T09:01:37;11.90;;;10.68;;
40286;SDS011;25998;46.604;13.610;2023-06-26T09:04:49;11.30;;;10.23;;
40286;SDS011;25998;46.604;13.610;2023-06-26T09:08:00;11.50;;;10.38;;
40286;SDS011;25998;46.604;13.610;2023-06-26T09:11:12;11.65;;;10.55;;
40286;SDS011;25998;46.604;13.610;2023-06-26T09:14:23;12.32;;;10.82;;
40286;SDS011;25998;46.604;13.610;2023-06-26T09:17:38;11.70;;;10.50;;
40286;SDS011;25998;46.604;13.610;2023-06-26T09:20:51;12.48;;;11.27;;
40286;SDS011;25998;46.604;13.610;2023-06-26T09:24:02;12.35;;;11.20;;
40286;SDS011;25998;46.604;13.610;2023-06-26T09:27:14;11.32;;;10.32;;
40286;SDS011;25998;46.604;13.610;2023-06-26T09:30:26;11.25;;;10.20;;
40286;SDS011;25998;46.604;13.610;2023-06-26T09:33:37;12.40;;;11.10;;
40286;SDS011;25998;46.604;13.610;2023-06-26T09:36:48;12.05;;;10.93;;
40286;SDS011;25998;46.604;13.610;2023-06-26T09:40:04;11.95;;;10.57;;
40286;SDS011;25998;46.604;13.610;2023-06-26T09:43:18;11.10;;;10.10;;
40286;SDS011;25998;46.604;13.610;2023-06-26T09:46:30;11.82;;;10.73;;
40286;SDS011;25998;46.604;13.610;2023-06-26T09:49:41;11.65;;;10.40;;
40286;SDS011;25998;46.604;13.610;2023-06-26T09:52:53;12.48;;;11.38;;
40286;SDS011;25998;46.604;13.610;2023-06-26T09:56:07;12.00;;;10.77;;
40286;SDS011;25998;46.604;13.610;2023-06-26T09:59:26;13.60;;;10.50;;
40286;SDS011;25998;46.604;13.610;2023-06-26T10:02:36;11.27;;;10.27;;
40286;SDS011;25998;46.604;13.610;2023-06-26T10:05:47;10.93;;;9.93;;
40286;SDS011;25998;46.604;13.610;2023-06-26T10:09:02;11.63;;;10.63;;
40286;SDS011;25998;46.604;13.610;2023-06-26T10:12:18;10.85;;;9.80;;
40286;SDS011;25998;46.604;13.610;2023-06-26T10:15:32;11.23;;;9.52;;
40286;SDS011;25998;46.604;13.610;2023-06-26T10:18:45;10.88;;;9.80;;
40286;SDS011;25998;46.604;13.610;2023-06-26T10:21:57;11.85;;;10.75;;
40286;SDS011;25998;46.604;13.610;2023-06-26T10:25:10;11.10;;;10.00;;
40286;SDS011;25998;46.604;13.610;2023-06-26T10:28:26;10.90;;;9.82;;
40286;SDS011;25998;46.604;13.610;2023-06-26T10:31:41;10.98;;;9.98;;
40286;SDS011;25998;46.604;13.610;2023-06-26T10:34:55;11.05;;;9.98;;
40286;SDS011;25998;46.604;13.610;2023-06-26T10:38:07;11.38;;;10.40;;
40286;SDS011;25998;46.604;13.610;2023-06-26T10:41:22;11.00;;;10.00;;
40286;SDS011;25998;46.604;13.610;2023-06-26T10:44:39;11.15;;;9.88;;
40286;SDS011;25998;46.604;13.610;2023-06-26T10:47:52;11.57;;;10.55;;
40286;SDS011;25998;46.604;13.610;2023-06-26T10:51:15;10.68;;;9.68;;
40286;SDS011;25998;46.604;13.610;2023-06-26T10:54:29;10.23;;;9.15;;
40286;SDS011;25998;46.604;13.610;2023-06-26T10:57:44;11.65;;;9.40;;
40286;SDS011;25998;46.604;13.610;2023-06-26T11:04:44;9.50;;;8.68;;
40286;SDS011;25998;46.604;13.610;2023-06-26T11:08:07;10.25;;;9.25;;
40286;SDS011;25998;46.604;13.610;2023-06-26T11:11:21;11.63;;;10.48;;
40286;SDS011;25998;46.604;13.610;2023-06-26T11:14:52;9.65;;;8.70;;
40286;SDS011;25998;46.604;13.610;2023-06-26T11:18:03;10.55;;;9.55;;
40286;SDS011;25998;46.604;13.610;2023-06-26T11:21:14;9.85;;;8.98;;
40286;SDS011;25998;46.604;13.610;2023-06-26T11:24:25;9.88;;;9.02;;
40286;SDS011;25998;46.604;13.610;2023-06-26T11:30:52;9.55;;;8.65;;
40286;SDS011;25998;46.604;13.610;2023-06-26T11:34:04;10.07;;;9.15;;
40286;SDS011;25998;46.604;13.610;2023-06-26T11:37:22;9.48;;;8.60;;
40286;SDS011;25998;46.604;13.610;2023-06-26T11:40:33;9.18;;;8.27;;
40286;SDS011;25998;46.604;13.610;2023-06-26T11:43:45;9.82;;;8.63;;
40286;SDS011;25998;46.604;13.610;2023-06-26T11:46:56;8.40;;;7.55;;
40286;SDS011;25998;46.604;13.610;2023-06-26T11:50:14;8.90;;;8.13;;
40286;SDS011;25998;46.604;13.610;2023-06-26T11:53:26;8.30;;;7.60;;
40286;SDS011;25998;46.604;13.610;2023-06-26T11:56:37;8.88;;;8.07;;
40286;SDS011;25998;46.604;13.610;2023-06-26T11:59:49;9.30;;;8.40;;
40286;SDS011;25998;46.604;13.610;2023-06-26T12:03:00;8.65;;;7.85;;
40286;SDS011;25998;46.604;13.610;2023-06-26T12:06:13;10.65;;;8.20;;
40286;SDS011;25998;46.604;13.610;2023-06-26T12:09:25;7.70;;;7.00;;
40286;SDS011;25998;46.604;13.610;2023-06-26T12:12:37;8.38;;;7.43;;
40286;SDS011;25998;46.604;13.610;2023-06-26T12:15:48;8.68;;;7.47;;
40286;SDS011;25998;46.604;13.610;2023-06-26T12:19:01;8.27;;;7.47;;
40286;SDS011;25998;46.604;13.610;2023-06-26T12:22:13;8.10;;;7.30;;
40286;SDS011;25998;46.604;13.610;2023-06-26T12:25:24;8.18;;;7.10;;
40286;SDS011;25998;46.604;13.610;2023-06-26T12:28:38;8.13;;;7.32;;
40286;SDS011;25998;46.604;13.610;2023-06-26T12:31:49;7.57;;;6.97;;
40286;SDS011;25998;46.604;13.610;2023-06-26T12:35:02;8.30;;;6.93;;
40286;SDS011;25998;46.604;13.610;2023-06-26T12:38:13;7.97;;;7.18;;
40286;SDS011;25998;46.604;13.610;2023-06-26T12:41:25;7.70;;;6.95;;
40286;SDS011;25998;46.604;13.610;2023-06-26T12:44:36;7.55;;;6.85;;
40286;SDS011;25998;46.604;13.610;2023-06-26T12:47:47;8.27;;;7.22;;
40286;SDS011;25998;46.604;13.610;2023-06-26T12:50:58;8.30;;;7.55;;
40286;SDS011;25998;46.604;13.610;2023-06-26T12:54:09;7.20;;;6.50;;
40286;SDS011;25998;46.604;13.610;2023-06-26T12:57:20;7.28;;;6.57;;
40286;SDS011;25998;46.604;13.610;2023-06-26T13:00:31;7.03;;;6.43;;
40286;SDS011;25998;46.604;13.610;2023-06-26T13:03:42;7.55;;;6.72;;
40286;SDS011;25998;46.604;13.610;2023-06-26T13:06:53;7.80;;;6.97;;
40286;SDS011;25998;46.604;13.610;2023-06-26T13:10:05;8.50;;;7.70;;
40286;SDS011;25998;46.604;13.610;2023-06-26T13:13:16;7.72;;;6.97;;
40286;SDS011;25998;46.604;13.610;2023-06-26T13:16:27;7.60;;;6.90;;
40286;SDS011;25998;46.604;13.610;2023-06-26T13:19:40;7.25;;;6.55;;
40286;SDS011;25998;46.604;13.610;2023-06-26T13:22:50;7.78;;;6.70;;
40286;SDS011;25998;46.604;13.610;2023-06-26T13:26:01;7.53;;;6.75;;
40286;SDS011;25998;46.604;13.610;2023-06-26T13:29:15;7.38;;;6.68;;
40286;SDS011;25998;46.604;13.610;2023-06-26T13:32:26;7.90;;;6.68;;
40286;SDS011;25998;46.604;13.610;2023-06-26T13:35:37;7.45;;;6.63;;
40286;SDS011;25998;46.604;13.610;2023-06-26T13:38:48;8.07;;;7.25;;
40286;SDS011;25998;46.604;13.610;2023-06-26T13:42:05;7.45;;;6.75;;
40286;SDS011;25998;46.604;13.610;2023-06-26T13:45:16;7.43;;;6.72;;
40286;SDS011;25998;46.604;13.610;2023-06-26T13:48:27;7.32;;;6.72;;
40286;SDS011;25998;46.604;13.610;2023-06-26T13:51:38;8.18;;;7.38;;
40286;SDS011;25998;46.604;13.610;2023-06-26T13:54:55;7.75;;;7.05;;
40286;SDS011;25998;46.604;13.610;2023-06-26T13:58:06;7.20;;;6.60;;
40286;SDS011;25998;46.604;13.610;2023-06-26T14:01:18;9.05;;;7.05;;
40286;SDS011;25998;46.604;13.610;2023-06-26T14:04:29;7.32;;;6.63;;
40286;SDS011;25998;46.604;13.610;2023-06-26T14:07:40;7.43;;;6.72;;
40286;SDS011;25998;46.604;13.610;2023-06-26T14:10:53;7.38;;;6.30;;
40286;SDS011;25998;46.604;13.610;2023-06-26T14:14:04;7.18;;;6.53;;
40286;SDS011;25998;46.604;13.610;2023-06-26T14:17:15;8.25;;;7.53;;
40286;SDS011;25998;46.604;13.610;2023-06-26T14:20:26;7.28;;;6.57;;
40286;SDS011;25998;46.604;13.610;2023-06-26T14:23:37;6.88;;;6.18;;
40286;SDS011;25998;46.604;13.610;2023-06-26T14:26:48;7.55;;;6.85;;
40286;SDS011;25998;46.604;13.610;2023-06-26T14:29:59;11.25;;;7.22;;
40286;SDS011;25998;46.604;13.610;2023-06-26T14:33:10;7.18;;;6.35;;
40286;SDS011;25998;46.604;13.610;2023-06-26T14:36:21;14.40;;;13.13;;
40286;SDS011;25998;46.604;13.610;2023-06-26T14:39:32;7.63;;;6.82;;
40286;SDS011;25998;46.604;13.610;2023-06-26T14:42:43;7.32;;;6.60;;
40286;SDS011;25998;46.604;13.610;2023-06-26T14:45:55;7.80;;;6.70;;
40286;SDS011;25998;46.604;13.610;2023-06-26T14:49:06;7.10;;;6.40;;
40286;SDS011;25998;46.604;13.610;2023-06-26T14:52:17;7.72;;;6.90;;
40286;SDS011;25998;46.604;13.610;2023-06-26T14:55:28;7.60;;;6.90;;
40286;SDS011;25998;46.604;13.610;2023-06-26T14:58:39;7.57;;;6.88;;
40286;SDS011;25998;46.604;13.610;2023-06-26T15:01:50;7.40;;;6.47;;
40286;SDS011;25998;46.604;13.610;2023-06-26T15:05:01;7.63;;;6.93;;
40286;SDS011;25998;46.604;13.610;2023-06-26T15:08:12;7.05;;;6.40;;
40286;SDS011;25998;46.604;13.610;2023-06-26T15:11:23;6.88;;;6.28;;
40286;SDS011;25998;46.604;13.610;2023-06-26T15:14:33;7.03;;;6.38;;
40286;SDS011;25998;46.604;13.610;2023-06-26T15:17:44;7.22;;;6.50;;
40286;SDS011;25998;46.604;13.610;2023-06-26T15:20:55;7.07;;;6.47;;
40286;SDS011;25998;46.604;13.610;2023-06-26T15:24:06;6.65;;;6.05;;
40286;SDS011;25998;46.604;13.610;2023-06-26T15:27:17;7.00;;;6.35;;
40286;SDS011;25998;46.604;13.610;2023-06-26T15:30:28;6.93;;;6.15;;
40286;SDS011;25998;46.604;13.610;2023-06-26T15:33:39;7.35;;;6.75;;
40286;SDS011;25998;46.604;13.610;2023-06-26T15:36:50;7.35;;;6.65;;
40286;SDS011;25998;46.604;13.610;2023-06-26T15:40:01;7.05;;;6.35;;
40286;SDS011;25998;46.604;13.610;2023-06-26T15:43:11;7.32;;;6.63;;
40286;SDS011;25998;46.604;13.610;2023-06-26T15:46:22;7.03;;;6.43;;
40286;SDS011;25998;46.604;13.610;2023-06-26T15:49:33;7.43;;;6.72;;
40286;SDS011;25998;46.604;13.610;2023-06-26T15:52:45;6.38;;;5.78;;
40286;SDS011;25998;46.604;13.610;2023-06-26T15:55:56;6.90;;;6.13;;
40286;SDS011;25998;46.604;13.610;2023-06-26T15:59:07;6.90;;;6.28;;
40286;SDS011;25998;46.604;13.610;2023-06-26T16:02:18;7.32;;;6.65;;
40286;SDS011;25998;46.604;13.610;2023-06-26T16:05:28;7.30;;;6.35;;
40286;SDS011;25998;46.604;13.610;2023-06-26T16:08:39;8.18;;;6.68;;
40286;SDS011;25998;46.604;13.610;2023-06-26T16:11:52;6.88;;;6.28;;
40286;SDS011;25998;46.604;13.610;2023-06-26T16:15:02;6.68;;;6.05;;
40286;SDS011;25998;46.604;13.610;2023-06-26T16:18:14;7.30;;;6.60;;
40286;SDS011;25998;46.604;13.610;2023-06-26T16:21:26;7.35;;;6.65;;
40286;SDS011;25998;46.604;13.610;2023-06-26T16:24:37;7.72;;;6.78;;
40286;SDS011;25998;46.604;13.610;2023-06-26T16:27:47;7.55;;;6.85;;
40286;SDS011;25998;46.604;13.610;2023-06-26T16:30:58;9.02;;;6.97;;
40286;SDS011;25998;46.604;13.610;2023-06-26T16:34:09;8.23;;;7.43;;
40286;SDS011;25998;46.604;13.610;2023-06-26T16:37:20;8.55;;;6.45;;
40286;SDS011;25998;46.604;13.610;2023-06-26T16:40:31;8.20;;;6.93;;
40286;SDS011;25998;46.604;13.610;2023-06-26T16:43:42;7.35;;;6.55;;
40286;SDS011;25998;46.604;13.610;2023-06-26T16:46:55;7.25;;;6.55;;
40286;SDS011;25998;46.604;13.610;2023-06-26T16:50:09;7.55;;;6.75;;
40286;SDS011;25998;46.604;13.610;2023-06-26T16:53:20;7.63;;;6.82;;
40286;SDS011;25998;46.604;13.610;2023-06-26T16:56:31;7.13;;;6.45;;
40286;SDS011;25998;46.604;13.610;2023-06-26T16:59:42;7.15;;;6.55;;
40286;SDS011;25998;46.604;13.610;2023-06-26T17:02:53;7.13;;;6.35;;
40286;SDS011;25998;46.604;13.610;2023-06-26T17:06:04;7.50;;;6.78;;
40286;SDS011;25998;46.604;13.610;2023-06-26T17:09:17;7.60;;;6.45;;
40286;SDS011;25998;46.604;13.610;2023-06-26T17:12:28;6.97;;;6.35;;
40286;SDS011;25998;46.604;13.610;2023-06-26T17:15:39;7.30;;;6.65;;
40286;SDS011;25998;46.604;13.610;2023-06-26T17:18:50;10.85;;;7.43;;
40286;SDS011;25998;46.604;13.610;2023-06-26T17:22:01;9.82;;;7.10;;
40286;SDS011;25998;46.604;13.610;2023-06-26T17:25:13;8.68;;;6.93;;
40286;SDS011;25998;46.604;13.610;2023-06-26T17:28:24;9.60;;;7.70;;
40286;SDS011;25998;46.604;13.610;2023-06-26T17:31:35;8.02;;;6.97;;
40286;SDS011;25998;46.604;13.610;2023-06-26T17:34:45;9.20;;;7.30;;
40286;SDS011;25998;46.604;13.610;2023-06-26T17:37:56;7.85;;;6.97;;
40286;SDS011;25998;46.604;13.610;2023-06-26T17:41:07;8.98;;;6.80;;
40286;SDS011;25998;46.604;13.610;2023-06-26T17:44:19;8.05;;;7.05;;
40286;SDS011;25998;46.604;13.610;2023-06-26T17:47:32;7.97;;;7.18;;
40286;SDS011;25998;46.604;13.610;2023-06-26T17:50:42;7.90;;;6.90;;
40286;SDS011;25998;46.604;13.610;2023-06-26T17:53:53;10.60;;;7.07;;
40286;SDS011;25998;46.604;13.610;2023-06-26T17:57:05;9.40;;;7.22;;
40286;SDS011;25998;46.604;13.610;2023-06-26T18:00:16;12.63;;;8.65;;
40286;SDS011;25998;46.604;13.610;2023-06-26T18:03:27;11.10;;;8.20;;
40286;SDS011;25998;46.604;13.610;2023-06-26T18:06:38;11.80;;;8.00;;
40286;SDS011;25998;46.604;13.610;2023-06-26T18:09:49;9.57;;;7.82;;
40286;SDS011;25998;46.604;13.610;2023-06-26T18:13:00;12.40;;;8.05;;
40286;SDS011;25998;46.604;13.610;2023-06-26T18:16:11;13.13;;;8.68;;
40286;SDS011;25998;46.604;13.610;2023-06-26T18:19:23;13.55;;;8.52;;
40286;SDS011;25998;46.604;13.610;2023-06-26T18:22:33;11.20;;;7.63;;
40286;SDS011;25998;46.604;13.610;2023-06-26T18:25:44;11.75;;;8.55;;
40286;SDS011;25998;46.604;13.610;2023-06-26T18:28:55;10.98;;;8.00;;
40286;SDS011;25998;46.604;13.610;2023-06-26T18:32:06;14.07;;;8.82;;
40286;SDS011;25998;46.604;13.610;2023-06-26T18:35:17;11.70;;;8.15;;
40286;SDS011;25998;46.604;13.610;2023-06-26T18:38:28;10.50;;;8.23;;
40286;SDS011;25998;46.604;13.610;2023-06-26T18:41:39;9.57;;;8.32;;
40286;SDS011;25998;46.604;13.610;2023-06-26T18:44:50;9.93;;;8.93;;
40286;SDS011;25998;46.604;13.610;2023-06-26T18:48:01;11.88;;;8.80;;
40286;SDS011;25998;46.604;13.610;2023-06-26T18:51:15;8.75;;;7.57;;